CheckWX is a tool to help pilots better visualize weather data.  It is not intended as a substitute for an official pre-flight weather briefing.

18:33:14 UTC

CYQR METAR
Regina International Airport
Regina, Canada
Current

33 mins ago

CYQR 221800Z 13017KT 15SM SKC M18/M20 A2999 RMK SLP217
Observed
Feb-22 @ 18:00 UTC
Wind
  • 130° at 17 KTS
Visibility
15 SM
Flight Rules
VFR
Cloud Levels
  • Clear skies
Temperature
-18°C / -0°F
Dewpoint
-20°C / -4°F
Humidity
84%
Altimeter
29.99" Hg
Pressure
1021.7 hPa
Previous

2 hours ago

CYQR 221700Z 13015KT 3SM IC SKC M21/M23 A3000 RMK SLP224
Observed
Feb-22 @ 17:00 UTC
Wind
  • 130° at 15 KTS
Visibility
3 SM
Flight Rules
MVFR
Conditions
Ice crystals
Cloud Levels
  • Clear skies
Temperature
-21°C / -6°F
Dewpoint
-23°C / -9°F
Humidity
84%
Altimeter
30" Hg
Pressure
1022.4 hPa
Previous

2 hours ago

CYQR 221631Z 13015KT 3SM IC SKC M21/M24 A3001 RMK SLP228
Observed
Feb-22 @ 16:31 UTC
Wind
  • 130° at 15 KTS
Visibility
3 SM
Flight Rules
MVFR
Conditions
Ice crystals
Cloud Levels
  • Clear skies
Temperature
-21°C / -6°F
Dewpoint
-24°C / -11°F
Humidity
77%
Altimeter
30.01" Hg
Pressure
1022.8 hPa